Time;durP1;ratioP1;P1;durP2;ratioP2;P2;SDS_P1;SDS_P2;PMS_P1;PMS_P2;Temp;Humidity;BMP_temperature;BMP_pressure;BME280_temperature;BME280_humidity;BME280_pressure;Samples;Min_cycle;Max_cycle;Signal;HPM_P1;HPM_P2
2023/06/13 00:00:42;;;;;;;0.10;0.10;;;19.40;65.30;;;;;;4838326;29;20122;-82
2023/06/13 00:03:09;;;;;;;0.20;0.20;;;19.40;65.40;;;;;;4822272;29;20050;-83
2023/06/13 00:05:35;;;;;;;0.10;0.10;;;19.30;65.30;;;;;;4838279;29;20129;-83
2023/06/13 00:08:00;;;;;;;0.17;0.17;;;19.30;65.40;;;;;;4820421;29;20126;-82
2023/06/13 00:10:26;;;;;;;0.22;0.22;;;19.30;65.40;;;;;;4831394;29;20402;-83
2023/06/13 00:12:52;;;;;;;0.20;0.20;;;19.10;65.30;;;;;;4822950;29;20038;-83
2023/06/13 00:15:18;;;;;;;0.20;0.20;;;19.20;65.30;;;;;;4838053;29;20045;-82
2023/06/13 00:17:47;;;;;;;0.20;0.20;;;19.10;65.30;;;;;;4821627;29;20486;-83
2023/06/13 00:20:13;;;;;;;0.20;0.20;;;19.10;65.30;;;;;;4814767;29;20390;-82
2023/06/13 00:22:39;;;;;;;0.20;0.20;;;19.10;65.30;;;;;;4822957;29;20054;-82
2023/06/13 00:25:05;;;;;;;0.10;0.10;;;19.10;65.30;;;;;;4824677;29;20050;-82
2023/06/13 00:27:32;;;;;;;0.20;0.20;;;19.00;65.10;;;;;;4829207;29;20061;-82
2023/06/13 00:29:57;;;;;;;0.20;0.20;;;19.00;65.20;;;;;;4816608;29;20049;-82
2023/06/13 00:32:23;;;;;;;0.17;0.17;;;18.90;65.10;;;;;;4821369;29;20050;-82
2023/06/13 00:34:49;;;;;;;0.20;0.20;;;18.90;65.10;;;;;;4820646;29;20081;-82
2023/06/13 00:37:16;;;;;;;0.20;0.20;;;18.90;65.20;;;;;;4826852;29;20482;-83
2023/06/13 00:39:43;;;;;;;0.20;0.20;;;18.90;65.30;;;;;;4817976;29;20519;-82
2023/06/13 00:42:08;;;;;;;0.20;0.20;;;18.80;65.40;;;;;;4817955;29;20050;-83
2023/06/13 00:44:35;;;;;;;0.20;0.20;;;18.80;65.30;;;;;;4816546;29;20053;-82
2023/06/13 00:47:02;;;;;;;0.10;0.10;;;18.80;65.30;;;;;;4838377;29;20450;-82
2023/06/13 00:49:28;;;;;;;0.10;0.10;;;18.70;65.40;;;;;;4833782;29;20050;-82
2023/06/13 00:51:57;;;;;;;0.20;0.20;;;18.70;65.30;;;;;;4816395;29;20057;-83
2023/06/13 00:54:23;;;;;;;0.20;0.20;;;18.70;65.40;;;;;;4839081;29;20053;-82
2023/06/13 00:56:49;;;;;;;0.20;0.20;;;18.70;65.30;;;;;;4824524;29;20042;-83
2023/06/13 00:59:17;;;;;;;0.20;0.20;;;18.60;65.30;;;;;;4836336;29;20053;-83
2023/06/13 01:01:43;;;;;;;0.10;0.10;;;18.60;65.30;;;;;;4816945;29;20061;-82
2023/06/13 01:04:13;;;;;;;0.20;0.20;;;18.60;65.30;;;;;;4822463;29;20050;-83
2023/06/13 01:06:44;;;;;;;0.20;0.20;;;18.50;65.30;;;;;;4841141;29;20081;-82
2023/06/13 01:09:12;;;;;;;0.15;0.15;;;18.50;65.20;;;;;;4823580;29;20042;-82
2023/06/13 01:12:05;;;;;;;0.20;0.20;;;18.50;65.30;;;;;;4840463;29;20077;-83
2023/06/13 01:14:47;;;;;;;0.20;0.20;;;18.50;65.30;;;;;;4833335;29;20050;-82
2023/06/13 01:17:18;;;;;;;0.20;0.20;;;18.40;65.30;;;;;;4841098;29;20455;-82
2023/06/13 01:19:53;;;;;;;0.20;0.20;;;18.40;65.30;;;;;;4839207;29;20045;-82
2023/06/13 01:22:35;;;;;;;0.20;0.20;;;18.40;65.30;;;;;;4811284;29;20491;-82
2023/06/13 01:25:10;;;;;;;0.10;0.10;;;18.30;66.00;;;;;;4821148;29;20050;-82
2023/06/13 01:27:38;;;;;;;0.13;0.13;;;18.30;65.40;;;;;;4822712;29;20653;-83
2023/06/13 01:30:05;;;;;;;0.20;0.20;;;18.30;65.60;;;;;;4819868;29;20045;-83
2023/06/13 01:32:33;;;;;;;0.10;0.10;;;18.30;65.60;;;;;;4841111;29;20456;-82
2023/06/13 01:34:59;;;;;;;0.20;0.20;;;18.20;65.60;;;;;;4836831;29;20053;-82
2023/06/13 01:37:26;;;;;;;0.10;0.10;;;18.30;65.70;;;;;;4838552;29;20125;-82
2023/06/13 01:39:52;;;;;;;0.20;0.20;;;18.20;65.70;;;;;;4834940;29;20094;-82
2023/06/13 01:42:17;;;;;;;0.15;0.15;;;18.20;65.80;;;;;;4822024;29;20058;-82
2023/06/13 01:44:43;;;;;;;0.20;0.20;;;18.20;65.90;;;;;;4822303;29;20082;-83
2023/06/13 01:47:51;;;;;;;0.10;0.10;;;18.30;66.10;;;;;;4835927;29;20049;-82
2023/06/13 01:50:46;;;;;;;0.10;0.10;;;18.10;66.00;;;;;;4818021;29;20441;-83
2023/06/13 01:53:31;;;;;;;0.10;0.10;;;18.00;66.20;;;;;;4811501;29;20403;-82
2023/06/13 01:56:03;;;;;;;0.15;0.15;;;18.00;66.40;;;;;;4820064;29;20046;-82
2023/06/13 01:58:35;;;;;;;0.20;0.20;;;18.00;66.60;;;;;;4815888;29;20050;-82
2023/06/13 02:01:04;;;;;;;0.20;0.20;;;18.00;67.00;;;;;;4832044;29;20050;-82
2023/06/13 02:03:31;;;;;;;0.20;0.20;;;17.80;67.00;;;;;;4815815;29;20058;-82
2023/06/13 02:05:56;;;;;;;0.20;0.20;;;17.80;67.30;;;;;;4851772;29;20561;-82
2023/06/13 02:08:22;;;;;;;0.15;0.15;;;17.80;67.30;;;;;;4833585;29;20046;-82
2023/06/13 02:10:48;;;;;;;0.20;0.20;;;17.70;67.30;;;;;;4824142;29;20058;-83
2023/06/13 02:13:14;;;;;;;0.10;0.10;;;17.60;67.30;;;;;;4813655;29;20049;-82
2023/06/13 02:15:39;;;;;;;0.20;0.20;;;17.90;67.50;;;;;;4824489;29;20076;-82
2023/06/13 02:18:06;;;;;;;0.20;0.20;;;17.50;67.30;;;;;;4811946;29;20041;-82
2023/06/13 02:20:33;;;;;;;0.20;0.20;;;17.50;67.10;;;;;;4824026;29;20190;-82
2023/06/13 02:23:02;;;;;;;0.20;0.20;;;17.50;67.10;;;;;;4810381;29;20058;-83
2023/06/13 02:25:28;;;;;;;0.20;0.20;;;17.40;67.00;;;;;;4811257;29;20085;-82
2023/06/13 02:27:54;;;;;;;0.15;0.15;;;17.40;67.00;;;;;;4812658;29;20045;-82
2023/06/13 02:30:19;;;;;;;0.10;0.10;;;17.40;67.00;;;;;;4816163;29;20064;-82
2023/06/13 02:33:01;;;;;;;0.10;0.10;;;17.50;67.10;;;;;;4824812;29;20041;-82
2023/06/13 02:35:26;;;;;;;;;;;17.20;66.80;;;;;;4821829;29;20054;-82
2023/06/13 02:37:53;;;;;;;0.20;0.20;;;17.30;66.90;;;;;;4822431;29;20284;-81
2023/06/13 02:40:25;;;;;;;0.20;0.20;;;17.30;67.10;;;;;;4821107;29;20054;-82
2023/06/13 02:42:53;;;;;;;0.20;0.20;;;17.30;67.00;;;;;;4820548;29;20112;-82
2023/06/13 02:45:22;;;;;;;0.20;0.20;;;17.30;67.00;;;;;;4823232;29;20551;-82
2023/06/13 02:47:48;;;;;;;0.20;0.20;;;17.20;66.90;;;;;;4817228;29;20051;-83
2023/06/13 02:50:14;;;;;;;0.20;0.20;;;17.20;66.90;;;;;;4818677;29;20042;-82
2023/06/13 02:52:39;;;;;;;0.17;0.17;;;17.20;67.00;;;;;;4840086;29;20099;-83
2023/06/13 02:55:10;;;;;;;0.10;0.10;;;17.20;67.00;;;;;;4839109;29;20085;-83
2023/06/13 02:57:37;;;;;;;0.20;0.20;;;17.20;67.00;;;;;;4837477;29;20046;-82
2023/06/13 03:00:07;;;;;;;0.13;0.13;;;17.20;66.90;;;;;;4840295;29;20330;-83
2023/06/13 03:02:33;;;;;;;0.20;0.20;;;17.10;66.80;;;;;;4816611;29;20050;-82
2023/06/13 03:04:58;;;;;;;0.20;0.20;;;17.10;66.70;;;;;;4820572;29;20397;-82
2023/06/13 03:07:24;;;;;;;0.20;0.20;;;17.10;66.60;;;;;;4816541;29;20046;-82
2023/06/13 03:09:50;;;;;;;0.20;0.20;;;17.20;66.70;;;;;;4823333;29;20038;-82
2023/06/13 03:12:37;;;;;;;0.13;0.13;;;17.10;66.70;;;;;;4824407;29;20061;-82
2023/06/13 03:15:02;;;;;;;0.20;0.20;;;17.10;66.60;;;;;;4810185;29;20129;-82
2023/06/13 03:17:36;;;;;;;0.20;0.20;;;17.00;66.90;;;;;;4821358;29;20142;-82
2023/06/13 03:20:05;;;;;;;0.20;0.20;;;17.00;66.50;;;;;;4822974;29;20053;-82
2023/06/13 03:22:37;;;;;;;0.10;0.10;;;17.00;66.60;;;;;;4839694;29;20124;-82
2023/06/13 03:25:13;;;;;;;0.20;0.20;;;17.00;66.50;;;;;;4819922;29;20049;-82
2023/06/13 03:27:38;;;;;;;0.10;0.10;;;17.00;66.60;;;;;;4836750;29;20499;-82
2023/06/13 03:30:15;;;;;;;0.20;0.20;;;17.00;66.50;;;;;;4805597;29;20049;-81
2023/06/13 03:32:40;;;;;;;0.20;0.20;;;16.90;66.40;;;;;;4837364;29;20046;-82
2023/06/13 03:35:06;;;;;;;0.20;0.20;;;16.90;66.50;;;;;;4835203;29;20061;-82
2023/06/13 03:37:35;;;;;;;0.10;0.10;;;16.90;66.30;;;;;;4821180;29;20054;-82
2023/06/13 03:40:01;;;;;;;0.10;0.10;;;16.90;66.20;;;;;;4840289;29;20045;-82
2023/06/13 03:42:26;;;;;;;0.20;0.20;;;16.90;66.20;;;;;;4838397;29;20037;-82
2023/06/13 03:44:52;;;;;;;0.20;0.20;;;16.90;66.20;;;;;;4809145;29;20078;-82
2023/06/13 03:47:18;;;;;;;0.20;0.20;;;16.90;66.20;;;;;;4820524;29;20062;-82
2023/06/13 03:49:55;;;;;;;0.20;0.20;;;16.90;66.20;;;;;;4820808;29;20052;-82
2023/06/13 03:52:21;;;;;;;0.10;0.10;;;16.80;66.10;;;;;;4834771;29;20054;-82
2023/06/13 03:54:47;;;;;;;0.20;0.20;;;16.80;66.00;;;;;;4821334;29;20744;-82
2023/06/13 03:57:13;;;;;;;0.20;0.20;;;16.90;66.10;;;;;;4822566;29;20041;-82
2023/06/13 03:59:38;;;;;;;0.20;0.20;;;16.80;66.00;;;;;;4823200;29;20050;-82
2023/06/13 04:02:04;;;;;;;0.20;0.20;;;16.80;66.00;;;;;;4834981;29;20042;-82
2023/06/13 04:04:32;;;;;;;0.20;0.20;;;16.80;65.90;;;;;;4838019;29;20150;-82
2023/06/13 04:07:12;;;;;;;0.20;0.20;;;16.80;66.00;;;;;;4835949;29;20185;-82
2023/06/13 04:09:38;;;;;;;0.20;0.20;;;18.00;66.70;;;;;;4837020;29;20102;-82
2023/06/13 04:12:05;;;;;;;0.10;0.10;;;16.80;66.40;;;;;;4822962;29;20046;-82
2023/06/13 04:14:32;;;;;;;0.10;0.10;;;16.80;67.00;;;;;;4819163;29;20388;-82
2023/06/13 04:17:02;;;;;;;0.10;0.10;;;16.80;66.70;;;;;;4813436;29;20054;-82
2023/06/13 04:19:31;;;;;;;0.17;0.17;;;16.80;67.00;;;;;;4820560;29;20514;-82
2023/06/13 04:21:59;;;;;;;0.20;0.20;;;16.80;67.30;;;;;;4819772;29;20046;-82
2023/06/13 04:24:25;;;;;;;0.17;0.17;;;16.80;67.50;;;;;;4815576;29;20070;-83
2023/06/13 04:26:51;;;;;;;0.20;0.20;;;16.70;67.50;;;;;;4833000;29;20042;-82
2023/06/13 04:29:18;;;;;;;0.10;0.10;;;16.70;67.80;;;;;;4821632;29;20491;-81
2023/06/13 04:31:45;;;;;;;0.13;0.13;;;16.70;67.80;;;;;;4829562;29;20069;-82
2023/06/13 04:34:11;;;;;;;0.10;0.10;;;16.80;68.10;;;;;;4821079;29;20038;-82
2023/06/13 04:36:38;;;;;;;0.20;0.20;;;16.80;68.30;;;;;;4834635;29;20054;-81
2023/06/13 04:39:06;;;;;;;0.10;0.10;;;16.60;68.40;;;;;;4828920;29;20072;-81
2023/06/13 04:41:37;;;;;;;0.20;0.20;;;16.60;68.60;;;;;;4837506;29;20455;-82
2023/06/13 04:44:09;;;;;;;0.20;0.20;;;16.60;68.90;;;;;;4822383;29;20065;-81
2023/06/13 04:46:41;;;;;;;0.20;0.20;;;16.60;69.60;;;;;;4818629;29;20058;-82
2023/06/13 04:49:07;;;;;;;0.13;0.13;;;16.60;69.20;;;;;;4810734;29;20591;-82
2023/06/13 04:51:33;;;;;;;0.17;0.17;;;16.60;69.30;;;;;;4813889;29;20050;-82
2023/06/13 04:54:00;;;;;;;0.20;0.20;;;16.80;71.30;;;;;;4836610;29;20049;-82
2023/06/13 04:56:28;;;;;;;0.20;0.20;;;16.70;69.90;;;;;;4820030;29;20046;-82
2023/06/13 04:58:55;;;;;;;0.10;0.10;;;16.70;70.00;;;;;;4837805;29;20046;-82
2023/06/13 05:01:26;;;;;;;0.20;0.20;;;16.70;70.10;;;;;;4836562;29;20494;-82
2023/06/13 05:03:53;;;;;;;0.20;0.20;;;16.80;70.10;;;;;;4817697;29;20131;-85
2023/06/13 05:06:19;;;;;;;0.20;0.20;;;16.80;70.30;;;;;;4814643;29;20058;-82
2023/06/13 05:08:46;;;;;;;0.10;0.10;;;16.80;70.30;;;;;;4829944;29;20047;-82
2023/06/13 05:11:12;;;;;;;0.20;0.20;;;16.80;70.30;;;;;;4846501;29;20577;-82
2023/06/13 05:13:38;;;;;;;0.17;0.17;;;16.90;70.50;;;;;;4815059;29;20125;-82
2023/06/13 05:16:04;;;;;;;0.10;0.10;;;16.90;70.50;;;;;;4832200;29;20411;-82
2023/06/13 05:18:31;;;;;;;0.20;0.20;;;16.90;70.50;;;;;;4837640;29;20090;-83
2023/06/13 05:21:00;;;;;;;0.20;0.20;;;17.00;70.70;;;;;;4831119;29;20054;-82
2023/06/13 05:23:26;;;;;;;0.20;0.20;;;17.00;70.80;;;;;;4820451;29;20050;-82
2023/06/13 05:25:59;;;;;;;0.20;0.20;;;17.00;70.50;;;;;;4824999;29;20049;-82
2023/06/13 05:28:38;;;;;;;0.20;0.20;;;17.10;69.80;;;;;;4841922;29;20129;-82
2023/06/13 05:31:04;;;;;;;0.10;0.10;;;17.10;69.40;;;;;;4807634;29;20046;-85
2023/06/13 05:33:30;;;;;;;0.20;0.20;;;17.10;68.70;;;;;;4818799;29;20116;-82
2023/06/13 05:35:55;;;;;;;0.20;0.20;;;17.20;68.70;;;;;;4818557;29;20066;-82
2023/06/13 05:38:21;;;;;;;0.20;0.20;;;17.30;68.60;;;;;;4838611;29;20085;-81
2023/06/13 05:40:47;;;;;;;0.10;0.10;;;17.30;68.10;;;;;;4822915;29;20152;-83
2023/06/13 05:43:13;;;;;;;0.10;0.10;;;17.40;68.20;;;;;;4825693;29;20046;-81
2023/06/13 05:45:49;;;;;;;;;;;;;;;;;;;;;
2023/06/13 05:48:21;;;;;;;0.10;0.10;;;17.50;68.80;;;;;;4842425;29;20092;-81
2023/06/13 05:50:47;;;;;;;0.20;0.20;;;17.50;69.30;;;;;;4834492;29;20077;-82
2023/06/13 05:53:12;;;;;;;0.20;0.20;;;17.60;69.40;;;;;;4830559;29;20046;-81
2023/06/13 05:55:38;;;;;;;0.20;0.20;;;17.60;69.50;;;;;;4841458;29;20607;-82
2023/06/13 05:58:04;;;;;;;0.10;0.10;;;17.70;69.90;;;;;;4838762;29;20038;-82
2023/06/13 06:00:29;;;;;;;0.20;0.20;;;17.70;69.90;;;;;;4809148;29;20061;-81
2023/06/13 06:02:55;;;;;;;0.20;0.20;;;17.80;70.00;;;;;;4840775;29;20057;-83
2023/06/13 06:05:21;;;;;;;0.20;0.20;;;17.90;70.10;;;;;;4837227;29;20038;-82
2023/06/13 06:07:47;;;;;;;0.10;0.10;;;17.90;69.20;;;;;;4823360;29;20054;-82
2023/06/13 06:10:13;;;;;;;0.10;0.10;;;18.00;68.70;;;;;;4822041;29;20034;-79
2023/06/13 06:12:39;;;;;;;0.20;0.20;;;18.00;68.00;;;;;;4816995;29;20050;-81
2023/06/13 06:15:06;;;;;;;0.10;0.10;;;18.10;67.90;;;;;;4816559;29;20056;-80
2023/06/13 06:17:31;;;;;;;0.20;0.20;;;18.10;66.90;;;;;;4823584;29;20042;-80
2023/06/13 06:19:57;;;;;;;0.20;0.20;;;18.20;66.40;;;;;;4808232;29;20560;-80
2023/06/13 06:22:23;;;;;;;0.20;0.20;;;18.20;66.40;;;;;;4822009;29;20042;-80
2023/06/13 06:24:49;;;;;;;0.20;0.20;;;18.40;66.70;;;;;;4830223;29;20057;-80
2023/06/13 06:27:14;;;;;;;0.17;0.17;;;18.40;66.20;;;;;;4834312;29;20109;-79
2023/06/13 06:29:42;;;;;;;0.20;0.20;;;18.40;65.40;;;;;;4837091;29;20125;-80
2023/06/13 06:32:08;;;;;;;0.10;0.10;;;18.50;65.00;;;;;;4821767;29;20061;-82
2023/06/13 06:34:34;;;;;;;0.20;0.20;;;18.50;65.30;;;;;;4817352;29;20046;-83
2023/06/13 06:37:01;;;;;;;0.20;0.20;;;18.60;64.40;;;;;;4815431;29;20471;-81
2023/06/13 06:39:26;;;;;;;0.20;0.20;;;18.70;64.20;;;;;;4824522;29;20049;-81
2023/06/13 06:41:52;;;;;;;0.20;0.20;;;18.80;64.50;;;;;;4822540;29;20049;-80
2023/06/13 06:44:18;;;;;;;0.20;0.20;;;18.80;64.30;;;;;;4823913;29;20514;-81
2023/06/13 06:46:43;;;;;;;0.20;0.20;;;18.90;64.20;;;;;;4838875;29;20046;-80
2023/06/13 06:49:09;;;;;;;0.20;0.20;;;18.90;64.10;;;;;;4816303;29;20042;-81
2023/06/13 06:51:35;;;;;;;0.10;0.10;;;19.00;63.80;;;;;;4816001;29;20050;-82
2023/06/13 06:54:00;;;;;;;0.20;0.20;;;19.10;63.00;;;;;;4820648;29;20057;-79
2023/06/13 06:56:26;;;;;;;0.20;0.20;;;19.10;63.10;;;;;;4819339;29;20065;-82
2023/06/13 06:58:52;;;;;;;0.20;0.20;;;19.20;63.00;;;;;;4822653;29;20045;-81
2023/06/13 07:01:18;;;;;;;0.20;0.20;;;19.20;63.00;;;;;;4838767;29;20057;-81
2023/06/13 07:03:45;;;;;;;0.20;0.20;;;19.30;63.30;;;;;;4823524;29;20110;-79
2023/06/13 07:06:13;;;;;;;0.20;0.20;;;19.40;63.60;;;;;;4841281;29;20418;-80
2023/06/13 07:08:39;;;;;;;0.20;0.20;;;19.40;63.50;;;;;;4821703;29;20402;-81
2023/06/13 07:11:05;;;;;;;0.20;0.20;;;19.50;63.60;;;;;;4840305;29;20054;-79
2023/06/13 07:13:32;;;;;;;0.20;0.20;;;19.60;63.10;;;;;;4839129;29;20065;-79
2023/06/13 07:15:57;;;;;;;0.20;0.20;;;19.60;63.00;;;;;;4823712;29;20054;-80
2023/06/13 07:18:23;;;;;;;0.20;0.20;;;19.70;63.00;;;;;;4839020;29;20510;-79
2023/06/13 07:20:49;;;;;;;0.17;0.17;;;19.80;62.60;;;;;;4840415;29;20605;-80
2023/06/13 07:23:15;;;;;;;0.20;0.20;;;19.80;62.60;;;;;;4838755;29;20054;-80
2023/06/13 07:25:41;;;;;;;0.20;0.20;;;19.90;62.60;;;;;;4838674;29;20102;-82
2023/06/13 07:28:07;;;;;;;0.20;0.20;;;20.00;62.20;;;;;;4821301;29;20380;-81
2023/06/13 07:30:33;;;;;;;0.10;0.10;;;20.00;62.10;;;;;;4818552;29;20041;-81
2023/06/13 07:32:58;;;;;;;0.20;0.20;;;20.10;62.10;;;;;;4835063;29;20295;-81
2023/06/13 07:35:24;;;;;;;0.10;0.10;;;20.10;62.20;;;;;;4820991;29;20401;-81
2023/06/13 07:37:50;;;;;;;0.20;0.20;;;20.20;62.70;;;;;;4823882;29;20062;-81
2023/06/13 07:40:17;;;;;;;0.20;0.20;;;20.20;62.80;;;;;;4821150;29;20057;-80
2023/06/13 07:42:43;;;;;;;0.20;0.20;;;20.30;62.70;;;;;;4808185;29;20050;-81
2023/06/13 07:45:08;;;;;;;0.20;0.20;;;20.30;62.70;;;;;;4805250;29;20384;-80
2023/06/13 07:47:35;;;;;;;0.20;0.20;;;20.40;62.80;;;;;;4812354;29;20049;-79
2023/06/13 07:50:02;;;;;;;0.20;0.20;;;20.40;62.70;;;;;;4817705;29;20053;-80
2023/06/13 07:52:27;;;;;;;0.20;0.20;;;20.50;62.70;;;;;;4814395;29;20054;-80
2023/06/13 07:54:53;;;;;;;0.20;0.20;;;20.60;62.70;;;;;;4817518;29;20478;-82
2023/06/13 07:57:19;;;;;;;0.20;0.20;;;20.60;62.90;;;;;;4810640;29;20764;-81
2023/06/13 07:59:44;;;;;;;0.15;0.15;;;20.70;63.30;;;;;;4821952;29;20057;-81
2023/06/13 08:02:10;;;;;;;0.20;0.20;;;20.80;63.50;;;;;;4822303;29;20039;-81
2023/06/13 08:04:36;;;;;;;0.20;0.20;;;20.80;62.60;;;;;;4814227;29;20550;-82
2023/06/13 08:07:02;;;;;;;0.10;0.10;;;20.90;62.90;;;;;;4807376;29;20050;-81
2023/06/13 08:09:28;;;;;;;0.17;0.17;;;21.00;62.60;;;;;;4828672;29;20049;-82
2023/06/13 08:11:53;;;;;;;0.10;0.10;;;21.00;62.60;;;;;;4818121;29;20058;-80
2023/06/13 08:14:19;;;;;;;0.20;0.20;;;21.10;62.90;;;;;;4815136;29;20050;-81
2023/06/13 08:16:46;;;;;;;0.10;0.10;;;21.10;63.00;;;;;;4819662;29;20094;-79
2023/06/13 08:19:12;;;;;;;0.15;0.15;;;21.20;62.80;;;;;;4829162;29;20058;-80
2023/06/13 08:21:38;;;;;;;0.20;0.20;;;21.30;63.00;;;;;;4843145;29;20069;-79
2023/06/13 08:24:04;;;;;;;0.20;0.20;;;21.30;63.00;;;;;;4820015;29;20073;-78
2023/06/13 08:26:32;;;;;;;0.17;0.17;;;21.40;64.10;;;;;;4817404;29;20078;-80
2023/06/13 08:29:01;;;;;;;0.20;0.20;;;21.50;63.80;;;;;;4814922;29;20057;-79
2023/06/13 08:31:27;;;;;;;0.20;0.20;;;21.70;63.90;;;;;;4835328;29;20507;-80
2023/06/13 08:33:56;;;;;;;0.10;0.10;;;21.60;63.30;;;;;;4832912;29;20042;-79
2023/06/13 08:36:22;;;;;;;0.20;0.20;;;21.70;63.00;;;;;;4835649;29;20061;-80
2023/06/13 08:38:48;;;;;;;0.10;0.10;;;21.80;62.70;;;;;;4817736;29;20658;-79
2023/06/13 08:41:14;;;;;;;0.17;0.17;;;21.80;62.90;;;;;;4819381;29;20050;-79
2023/06/13 08:43:42;;;;;;;0.20;0.20;;;21.90;62.80;;;;;;4818534;29;20128;-79
2023/06/13 08:46:08;;;;;;;0.30;0.30;;;21.90;61.90;;;;;;4822962;29;20054;-80
2023/06/13 08:48:33;;;;;;;0.20;0.20;;;21.90;63.30;;;;;;4820299;29;20550;-79
2023/06/13 08:51:06;;;;;;;0.20;0.20;;;22.00;62.60;;;;;;4823191;29;20122;-79
2023/06/13 08:53:32;;;;;;;0.20;0.20;;;22.10;62.00;;;;;;4821439;29;20586;-79
2023/06/13 08:56:04;;;;;;;0.20;0.20;;;22.10;61.50;;;;;;4821652;29;20053;-79
2023/06/13 08:58:35;;;;;;;0.20;0.20;;;22.10;60.50;;;;;;4821666;29;20811;-80
2023/06/13 09:01:02;;;;;;;0.20;0.20;;;22.20;60.50;;;;;;4838999;29;20471;-80
2023/06/13 09:03:30;;;;;;;0.20;0.20;;;22.20;60.30;;;;;;4820236;29;20058;-80
2023/06/13 09:05:56;;;;;;;0.20;0.20;;;22.30;60.70;;;;;;4821014;29;20049;-79
2023/06/13 09:08:24;;;;;;;0.20;0.20;;;22.30;60.70;;;;;;4821754;29;20074;-80
2023/06/13 09:10:51;;;;;;;0.20;0.20;;;22.40;60.80;;;;;;4817562;29;20050;-78
2023/06/13 09:13:17;;;;;;;0.20;0.20;;;22.40;60.30;;;;;;4820285;29;20483;-79
2023/06/13 09:15:44;;;;;;;0.20;0.20;;;22.50;60.50;;;;;;4838502;29;20053;-79
2023/06/13 09:18:14;;;;;;;0.20;0.20;;;22.50;60.70;;;;;;4841458;29;20045;-78
2023/06/13 09:20:40;;;;;;;0.20;0.20;;;22.60;61.30;;;;;;4817612;29;20045;-78
2023/06/13 09:23:07;;;;;;;0.20;0.20;;;22.60;61.10;;;;;;4822200;29;20117;-80
2023/06/13 09:25:36;;;;;;;0.20;0.20;;;22.60;60.90;;;;;;4820667;29;20057;-81
2023/06/13 09:28:27;;;;;;;0.20;0.20;;;22.70;61.20;;;;;;4824831;29;20525;-81
2023/06/13 09:30:53;;;;;;;0.20;0.20;;;22.70;61.40;;;;;;4819819;29;20535;-82
2023/06/13 09:33:21;;;;;;;0.20;0.20;;;22.80;60.70;;;;;;4818444;29;20106;-79
2023/06/13 09:35:47;;;;;;;0.20;0.20;;;22.80;60.30;;;;;;4824519;29;20106;-78
2023/06/13 09:38:13;;;;;;;0.20;0.20;;;22.80;60.70;;;;;;4821151;29;20558;-79
2023/06/13 09:40:44;;;;;;;0.20;0.20;;;22.90;60.90;;;;;;4812611;29;20142;-78
2023/06/13 09:43:10;;;;;;;0.20;0.20;;;22.90;61.20;;;;;;4813026;29;20052;-78
2023/06/13 09:45:36;;;;;;;0.20;0.20;;;22.90;61.00;;;;;;4816875;29;20041;-79
2023/06/13 09:48:01;;;;;;;0.20;0.20;;;23.00;60.50;;;;;;4819912;29;20491;-82
2023/06/13 09:50:30;;;;;;;0.20;0.20;;;23.10;61.00;;;;;;4829476;29;20459;-78
2023/06/13 09:52:55;;;;;;;0.20;0.20;;;23.10;60.80;;;;;;4833369;29;20060;-79
2023/06/13 09:55:21;;;;;;;0.20;0.20;;;23.20;60.60;;;;;;4838567;29;20046;-79
2023/06/13 09:57:51;;;;;;;0.20;0.20;;;23.20;60.20;;;;;;4841715;29;20050;-78
2023/06/13 10:00:17;;;;;;;0.20;0.20;;;23.20;60.00;;;;;;4839644;29;20042;-78
2023/06/13 10:02:43;;;;;;;0.20;0.20;;;23.20;60.20;;;;;;4841909;29;20115;-79
2023/06/13 10:05:10;;;;;;;0.20;0.20;;;23.30;60.70;;;;;;4835562;29;20046;-78
2023/06/13 10:07:35;;;;;;;0.20;0.20;;;23.30;60.60;;;;;;4824889;29;20148;-79
2023/06/13 10:10:01;;;;;;;0.20;0.20;;;23.30;61.00;;;;;;4841792;29;20080;-78
2023/06/13 10:12:28;;;;;;;0.20;0.20;;;23.30;60.70;;;;;;4822634;29;20387;-78
2023/06/13 10:15:00;;;;;;;0.20;0.20;;;23.40;60.80;;;;;;4840082;29;20038;-78
2023/06/13 10:17:31;;;;;;;0.20;0.20;;;23.40;61.00;;;;;;4839152;29;20045;-78
2023/06/13 10:20:10;;;;;;;0.20;0.20;;;23.50;61.10;;;;;;4822994;29;20376;-78
2023/06/13 10:22:38;;;;;;;0.20;0.20;;;23.50;60.40;;;;;;4840893;29;20038;-78
2023/06/13 10:25:07;;;;;;;0.20;0.20;;;23.50;60.50;;;;;;4839135;29;20042;-78
2023/06/13 10:27:36;;;;;;;0.10;0.10;;;23.50;60.70;;;;;;4840009;29;20065;-78
2023/06/13 10:30:11;;;;;;;0.22;0.22;;;23.60;60.80;;;;;;4822614;29;20042;-77
2023/06/13 10:33:10;;;;;;;0.10;0.10;;;23.60;60.90;;;;;;4823746;29;20062;-78
2023/06/13 10:35:49;;;;;;;0.20;0.20;;;23.60;60.30;;;;;;4822869;29;20559;-77
2023/06/13 10:38:15;;;;;;;0.20;0.20;;;23.60;58.80;;;;;;4822644;29;20454;-78
2023/06/13 10:41:06;;;;;;;0.20;0.20;;;23.60;59.50;;;;;;4823571;29;20038;-77
2023/06/13 10:43:47;;;;;;;0.20;0.20;;;23.60;59.10;;;;;;4824227;29;20054;-78
2023/06/13 10:46:15;;;;;;;0.15;0.15;;;23.70;59.70;;;;;;4839808;29;20465;-78
2023/06/13 10:48:55;;;;;;;0.20;0.20;;;23.70;59.80;;;;;;4839102;29;20042;-78
2023/06/13 10:51:27;;;;;;;0.20;0.20;;;23.70;60.10;;;;;;4823694;29;20042;-77
2023/06/13 10:54:02;;;;;;;0.20;0.20;;;23.70;59.80;;;;;;4839376;29;20064;-78
2023/06/13 10:56:31;;;;;;;0.20;0.20;;;23.80;60.10;;;;;;4836304;29;20042;-78
2023/06/13 10:59:16;;;;;;;0.20;0.20;;;23.80;60.50;;;;;;4840934;29;20042;-76
2023/06/13 11:01:43;;;;;;;0.20;0.20;;;23.80;60.50;;;;;;4819284;29;20054;-79
2023/06/13 11:04:13;;;;;;;0.20;0.20;;;23.90;61.30;;;;;;4837859;29;20051;-77
2023/06/13 11:06:42;;;;;;;0.20;0.20;;;23.90;60.70;;;;;;4813670;29;20058;-77
2023/06/13 11:09:15;;;;;;;0.20;0.20;;;23.90;60.10;;;;;;4815367;29;20046;-78
2023/06/13 11:12:02;;;;;;;0.20;0.20;;;24.00;60.50;;;;;;4831227;29;20046;-77
2023/06/13 11:14:32;;;;;;;0.20;0.20;;;24.00;60.70;;;;;;4816310;29;20049;-78
2023/06/13 11:16:58;;;;;;;0.20;0.20;;;24.00;60.60;;;;;;4819630;29;20056;-78
2023/06/13 11:19:26;;;;;;;0.20;0.20;;;24.00;60.30;;;;;;4820880;29;20042;-79
2023/06/13 11:22:10;;;;;;;0.20;0.20;;;24.00;60.50;;;;;;4836713;29;20082;-79
2023/06/13 11:24:36;;;;;;;0.20;0.20;;;24.00;61.00;;;;;;4818563;29;20049;-78
2023/06/13 11:27:11;;;;;;;0.20;0.20;;;24.00;60.80;;;;;;4821617;29;20041;-78
2023/06/13 11:29:37;;;;;;;0.20;0.20;;;24.10;60.80;;;;;;4838182;29;20056;-77
2023/06/13 11:32:08;;;;;;;0.20;0.20;;;24.10;60.70;;;;;;4838995;29;20042;-77
2023/06/13 11:34:40;;;;;;;0.20;0.20;;;24.20;61.00;;;;;;4821880;29;20306;-78
2023/06/13 11:37:45;;;;;;;0.20;0.20;;;24.20;61.20;;;;;;4813899;29;20125;-78
2023/06/13 11:40:31;;;;;;;0.20;0.20;;;24.20;61.30;;;;;;4800795;29;20058;-77
2023/06/13 11:42:57;;;;;;;0.20;0.20;;;24.30;61.40;;;;;;4830299;29;20050;-77
2023/06/13 11:45:23;;;;;;;0.20;0.20;;;24.40;61.50;;;;;;4822700;29;20050;-78
2023/06/13 11:47:59;;;;;;;0.20;0.20;;;24.50;61.40;;;;;;4823975;29;20125;-78
2023/06/13 11:50:26;;;;;;;0.20;0.20;;;24.50;61.60;;;;;;4826947;29;20053;-77
2023/06/13 11:53:09;;;;;;;0.20;0.20;;;24.70;61.20;;;;;;4823531;29;20102;-78
2023/06/13 11:55:35;;;;;;;0.20;0.20;;;24.70;60.90;;;;;;4835254;29;20080;-78
2023/06/13 11:58:02;;;;;;;0.20;0.20;;;24.80;61.10;;;;;;4830689;29;20046;-78
2023/06/13 12:00:28;;;;;;;0.20;0.20;;;24.80;60.60;;;;;;4824049;29;20099;-79
2023/06/13 12:02:57;;;;;;;0.20;0.20;;;24.90;60.40;;;;;;4816816;29;20053;-78
2023/06/13 12:05:23;;;;;;;0.20;0.20;;;24.90;60.20;;;;;;4819980;29;20452;-77
2023/06/13 12:07:50;;;;;;;0.20;0.20;;;24.90;59.70;;;;;;4814925;29;20061;-79
2023/06/13 12:10:17;;;;;;;0.13;0.13;;;24.90;59.90;;;;;;4816605;29;20041;-79
2023/06/13 12:12:55;;;;;;;0.20;0.20;;;25.00;59.90;;;;;;4818302;29;20639;-78
2023/06/13 12:15:27;;;;;;;0.30;0.30;;;25.10;59.60;;;;;;4811552;29;20449;-78
2023/06/13 12:18:00;;;;;;;0.20;0.20;;;25.10;59.80;;;;;;4855375;29;20045;-77
2023/06/13 12:20:27;;;;;;;0.20;0.20;;;25.20;59.80;;;;;;4830088;29;20058;-78
2023/06/13 12:23:00;;;;;;;0.20;0.20;;;25.20;59.40;;;;;;4805471;29;20050;-78
2023/06/13 12:25:33;;;;;;;0.20;0.20;;;25.30;59.40;;;;;;4817411;29;20129;-77
2023/06/13 12:28:01;;;;;;;0.20;0.20;;;25.30;59.10;;;;;;4815907;29;20491;-77
2023/06/13 12:30:29;;;;;;;0.20;0.20;;;25.30;59.30;;;;;;4810042;29;20058;-79
2023/06/13 12:32:57;;;;;;;0.20;0.20;;;25.40;58.90;;;;;;4820846;29;20073;-78
2023/06/13 12:35:29;;;;;;;0.20;0.20;;;25.40;59.30;;;;;;4820914;29;20114;-77
2023/06/13 12:38:02;;;;;;;0.20;0.20;;;25.50;59.10;;;;;;4838368;29;20038;-79
2023/06/13 12:40:35;;;;;;;0.20;0.20;;;25.60;59.60;;;;;;4817439;29;20547;-78
2023/06/13 12:43:02;;;;;;;0.20;0.20;;;25.60;58.80;;;;;;4821907;29;20460;-78
2023/06/13 12:45:28;;;;;;;0.20;0.20;;;25.60;58.90;;;;;;4821620;29;20061;-78
2023/06/13 12:47:55;;;;;;;0.13;0.13;;;25.70;59.10;;;;;;4837187;29;20049;-78
2023/06/13 12:50:23;;;;;;;0.20;0.20;;;25.70;58.90;;;;;;4814827;29;20042;-77
2023/06/13 12:52:59;;;;;;;0.20;0.20;;;25.80;59.30;;;;;;4839959;29;20058;-78
2023/06/13 12:55:25;;;;;;;0.20;0.20;;;25.90;59.50;;;;;;4821711;29;20522;-78